Time;durP1;ratioP1;P1;durP2;ratioP2;P2;SDS_P1;SDS_P2;PMS_P1;PMS_P2;Temp;Humidity;BMP_temperature;BMP_pressure;BME280_temperature;BME280_humidity;BME280_pressure;Samples;Min_cycle;Max_cycle;Signal;HPM_P1;HPM_P2
2022/08/03 00:00:30;;;;;;;39.15;27.98;;;;;;;32.16;73.57;97557.53;5012014;28;20060;-69
2022/08/03 00:03:26;;;;;;;41.45;29.40;;;;;;;32.05;73.90;97567.78;5012195;28;20050;-68
2022/08/03 00:06:15;;;;;;;36.95;27.67;;;;;;;32.22;73.96;97562.72;5023747;28;20057;-68
2022/08/03 00:08:57;;;;;;;41.20;29.08;;;;;;;32.19;74.36;97559.53;5013773;28;20052;-69
2022/08/03 00:11:46;;;;;;;38.80;29.52;;;;;;;32.15;73.92;97580.13;5010307;28;20061;-68
2022/08/03 00:14:31;;;;;;;46.42;30.00;;;;;;;32.10;74.10;97581.28;5008699;28;20735;-69
2022/08/03 00:17:20;;;;;;;42.65;29.65;;;;;;;32.14;74.21;97579.34;5008342;28;20073;-68
2022/08/03 00:20:02;;;;;;;43.20;28.90;;;;;;;32.06;74.62;97574.09;5008332;28;20042;-68
2022/08/03 00:22:51;;;;;;;40.42;30.33;;;;;;;32.14;74.52;97586.84;5008306;28;20042;-68
2022/08/03 00:25:33;;;;;;;42.78;29.90;;;;;;;32.18;73.61;97594.03;5023585;28;20057;-68
2022/08/03 00:28:29;;;;;;;51.13;31.98;;;;;;;32.17;74.44;97592.44;5019131;28;20338;-68
2022/08/03 00:31:05;;;;;;;44.60;30.00;;;;;;;32.11;74.71;97590.41;5007401;28;20042;-68
2022/08/03 00:33:54;;;;;;;40.90;31.05;;;;;;;32.11;75.19;97587.63;5002463;28;20082;-68
2022/08/03 00:36:39;;;;;;;45.65;31.95;;;;;;;32.19;74.25;97598.41;4987771;28;20046;-67
2022/08/03 00:39:28;;;;;;;51.38;32.85;;;;;;;32.16;74.49;97598.38;4988614;28;20064;-68
2022/08/03 00:42:11;;;;;;;42.35;32.58;;;;;;;32.15;74.29;97600.34;4988335;28;20046;-68
2022/08/03 00:45:00;;;;;;;46.10;31.98;;;;;;;32.22;74.21;97609.91;4988806;28;20429;-68
2022/08/03 00:47:42;;;;;;;46.33;31.58;;;;;;;32.28;74.09;97614.72;4988747;28;20050;-68
2022/08/03 00:50:41;;;;;;;42.05;30.20;;;;;;;32.43;73.60;97626.75;4988505;28;20050;-67
2022/08/03 00:53:17;;;;;;;38.30;28.80;;;;;;;32.48;73.84;97615.25;4988296;28;20496;-68
2022/08/03 00:56:06;;;;;;;44.38;30.20;;;;;;;32.60;73.30;97611.41;4989039;28;20556;-68
2022/08/03 00:58:51;;;;;;;37.08;29.60;;;;;;;32.49;74.30;97614.06;4999000;28;20501;-68
2022/08/03 01:01:40;;;;;;;40.95;29.88;;;;;;;32.60;74.55;97622.53;4998275;28;20050;-68
2022/08/03 01:04:22;;;;;;;41.00;31.02;;;;;;;32.73;73.56;97620.19;5022202;28;20425;-68
2022/08/03 01:07:28;;;;;;;43.78;33.47;;;;;;;32.82;73.31;97628.97;5007589;28;20469;-68
2022/08/03 01:10:30;;;;;;;41.63;32.40;;;;;;;32.85;72.88;97636.56;5007497;28;20503;-68
2022/08/03 01:13:44;;;;;;;51.78;32.05;;;;;;;32.99;72.64;97623.91;5007515;28;20041;-68
2022/08/03 01:16:58;;;;;;;49.33;34.25;;;;;;;32.90;72.08;97627.81;5003535;28;20049;-67
2022/08/03 01:20:12;;;;;;;48.73;33.77;;;;;;;32.95;73.17;97618.34;5002913;28;20139;-68
2022/08/03 01:23:23;;;;;;;44.10;31.75;;;;;;;33.06;74.01;97626.72;5006955;28;21031;-68
2022/08/03 01:26:30;;;;;;;49.05;34.50;;;;;;;33.12;73.24;97633.53;5006893;28;20065;-68
2022/08/03 01:29:45;;;;;;;49.03;33.65;;;;;;;33.20;73.23;97642.69;5018540;28;20056;-68
2022/08/03 01:32:40;;;;;;;43.60;33.58;;;;;;;33.25;73.26;97643.13;5005725;28;20038;-68
2022/08/03 01:36:06;;;;;;;40.58;32.10;;;;;;;33.32;72.29;97648.69;5005758;28;20785;-68
2022/08/03 01:38:59;;;;;;;43.90;31.45;;;;;;;33.29;71.68;97651.47;5005024;28;20041;-68
2022/08/03 01:41:50;;;;;;;42.75;30.00;;;;;;;33.44;72.13;97658.69;5005314;28;20129;-68
2022/08/03 01:44:47;;;;;;;39.25;30.00;;;;;;;33.48;72.40;97661.47;5001058;28;20056;-68
2022/08/03 01:47:30;;;;;;;41.10;30.80;;;;;;;33.70;70.79;97677.06;5002251;28;20724;-68
2022/08/03 01:50:21;;;;;;;43.08;29.40;;;;;;;33.88;69.91;97679.06;4985853;28;20050;-67
2022/08/03 01:53:06;;;;;;;35.80;29.92;;;;;;;33.94;69.92;97688.66;4994043;28;20053;-68
2022/08/03 01:56:00;;;;;;;41.33;31.15;;;;;;;33.97;70.04;97687.84;5025422;28;20072;-68
2022/08/03 01:58:52;;;;;;;45.70;33.28;;;;;;;34.05;69.58;97683.09;5015571;28;20104;-68
2022/08/03 02:01:35;;;;;;;47.53;34.13;;;;;;;34.09;68.41;97687.47;5002902;28;20049;-69
2022/08/03 02:04:46;;;;;;;45.45;31.50;;;;;;;34.35;69.44;97695.88;5017039;28;20445;-68
2022/08/03 02:07:32;;;;;;;48.15;32.90;;;;;;;34.31;67.15;97695.88;5006490;28;20046;-68
2022/08/03 02:10:23;;;;;;;41.83;29.75;;;;;;;34.20;67.56;97695.06;5002620;28;20540;-68
2022/08/03 02:13:17;;;;;;;49.83;31.40;;;;;;;34.40;68.74;97699.06;4986525;28;20090;-68
2022/08/03 02:16:06;;;;;;;44.67;30.45;;;;;;;34.12;67.75;97706.16;4987123;28;20143;-68
2022/08/03 02:18:56;;;;;;;45.60;26.73;;;;;;;34.80;66.17;97704.66;4987046;28;20394;-68
2022/08/03 02:21:38;;;;;;;39.15;26.13;;;;;;;35.20;66.63;97708.97;4987027;28;20050;-69
2022/08/03 02:24:41;;;;;;;30.40;22.20;;;;;;;35.14;65.55;97716.13;4986658;28;20054;-67
2022/08/03 02:27:40;;;;;;;26.95;21.95;;;;;;;35.54;65.21;97718.78;4985799;28;20046;-68
2022/08/03 02:30:41;;;;;;;29.85;17.25;;;;;;;35.75;63.49;97717.91;4967029;28;20047;-68
2022/08/03 02:33:23;;;;;;;27.73;17.90;;;;;;;35.64;62.93;97723.53;4966558;28;20066;-68
2022/08/03 02:36:20;;;;;;;24.52;17.08;;;;;;;35.76;61.55;97731.47;4965672;28;20050;-67
2022/08/03 02:38:59;;;;;;;28.35;15.05;;;;;;;35.47;62.29;97728.00;4965215;28;20057;-68
2022/08/03 02:41:54;;;;;;;22.02;16.90;;;;;;;35.67;61.11;97723.53;4979858;28;20099;-68
2022/08/03 02:44:40;;;;;;;24.92;13.82;;;;;;;35.97;61.57;97724.19;4966549;28;20043;-68
2022/08/03 02:47:36;;;;;;;18.42;12.02;;;;;;;35.93;59.94;97721.41;4966323;28;20101;-69
2022/08/03 02:50:29;;;;;;;22.48;12.82;;;;;;;35.47;61.12;97720.41;4966051;28;20047;-68
2022/08/03 02:53:20;;;;;;;19.27;14.20;;;;;;;35.54;62.44;97711.22;4966722;28;20451;-68
2022/08/03 02:56:04;;;;;;;16.90;11.23;;;;;;;35.63;61.76;97710.78;4966689;28;20165;-68
2022/08/03 02:58:55;;;;;;;17.13;11.15;;;;;;;35.90;59.61;97713.84;4966446;28;20090;-69
2022/08/03 03:01:45;;;;;;;18.50;10.68;;;;;;;36.21;59.36;97712.09;4966869;28;20117;-70
2022/08/03 03:04:41;;;;;;;19.17;12.00;;;;;;;36.56;60.12;97712.22;4966845;28;20105;-68
2022/08/03 03:07:38;;;;;;;18.48;13.25;;;;;;;36.37;58.95;97725.53;4968095;28;20047;-68
2022/08/03 03:10:40;;;;;;;17.42;11.68;;;;;;;36.16;58.49;97726.44;4969262;28;20090;-67
2022/08/03 03:13:18;;;;;;;21.80;11.90;;;;;;;36.49;59.67;97729.03;4986063;28;20156;-67
2022/08/03 03:16:07;;;;;;;24.55;13.05;;;;;;;36.67;58.36;97735.31;4986141;28;20046;-68
2022/08/03 03:18:57;;;;;;;23.30;12.80;;;;;;;36.65;58.48;97743.31;4986009;28;20101;-68
2022/08/03 03:21:39;;;;;;;19.60;12.85;;;;;;;36.83;57.97;97741.13;4984941;28;20045;-68
2022/08/03 03:24:30;;;;;;;26.85;11.57;;;;;;;36.60;58.05;97746.50;4985950;28;20062;-67
2022/08/03 03:27:14;;;;;;;15.80;12.30;;;;;;;36.94;58.32;97749.44;4985695;28;20050;-68
2022/08/03 03:30:11;;;;;;;23.80;10.70;;;;;;;37.24;57.77;97742.34;4998297;28;20136;-68
2022/08/03 03:33:05;;;;;;;22.05;11.57;;;;;;;37.13;58.39;97741.63;4973612;28;20118;-68
2022/08/03 03:35:54;;;;;;;14.98;9.23;;;;;;;37.23;56.93;97749.16;4961978;28;20054;-68
2022/08/03 03:38:43;;;;;;;26.60;11.25;;;;;;;37.10;57.08;97740.47;4970756;28;20109;-67
2022/08/03 03:41:25;;;;;;;20.30;10.18;;;;;;;36.96;57.44;97744.22;4985778;28;20081;-68
2022/08/03 03:44:14;;;;;;;16.42;9.32;;;;;;;37.46;56.29;97742.91;4985452;28;20058;-69
2022/08/03 03:46:59;;;;;;;17.85;9.15;;;;;;;37.83;55.26;97738.47;4986265;28;20050;-69
2022/08/03 03:49:48;;;;;;;15.55;9.10;;;;;;;37.79;55.27;97754.53;4989433;28;20043;-68
2022/08/03 03:52:33;;;;;;;15.45;9.48;;;;;;;37.82;54.34;97756.50;4986134;28;20054;-69
2022/08/03 03:55:24;;;;;;;11.35;8.27;;;;;;;36.89;56.69;97749.09;4988944;28;20843;-70
2022/08/03 03:58:06;;;;;;;19.85;8.23;;;;;;;36.41;56.82;97748.66;4988653;28;20598;-68
2022/08/03 04:00:55;;;;;;;19.33;8.98;;;;;;;36.61;57.29;97745.28;4988130;28;20054;-69
2022/08/03 04:03:37;;;;;;;16.25;8.82;;;;;;;36.86;56.62;97756.31;4986075;28;20525;-70
2022/08/03 04:12:36;;;;;;;24.88;17.23;;;;;;;36.02;60.65;97741.31;4969582;28;20133;-68
2022/08/03 04:15:32;;;;;;;36.08;24.20;;;;;;;35.80;62.20;97749.00;4969382;28;20161;-69
2022/08/03 04:18:23;;;;;;;38.13;26.85;;;;;;;35.89;62.30;97762.53;4969600;28;20058;-68
2022/08/03 04:21:09;;;;;;;31.90;24.45;;;;;;;36.52;62.10;97765.34;4969531;28;20597;-68
2022/08/03 04:24:01;;;;;;;39.13;27.50;;;;;;;36.49;61.09;97763.34;4986265;28;20133;-68
2022/08/03 04:26:45;;;;;;;39.40;26.70;;;;;;;35.84;61.70;97774.09;4987750;28;20042;-69
2022/08/03 04:29:36;;;;;;;44.22;29.15;;;;;;;35.86;62.61;97780.06;4988620;28;20429;-70
2022/08/03 04:32:36;;;;;;;47.88;29.33;;;;;;;35.68;61.28;97767.00;5002518;28;20057;-68
2022/08/03 04:35:30;;;;;;;42.75;26.55;;;;;;;36.19;61.40;97763.97;4989785;28;20077;-69
2022/08/03 04:38:35;;;;;;;39.65;24.30;;;;;;;36.18;63.54;97774.34;4988583;28;20050;-69
2022/08/03 04:41:26;;;;;;;38.78;22.63;;;;;;;35.66;65.06;97774.94;4988334;28;20112;-69
2022/08/03 04:44:37;;;;;;;42.42;25.10;;;;;;;35.13;67.77;97784.25;4988289;28;20050;-68
2022/08/03 04:47:19;;;;;;;31.55;20.48;;;;;;;34.66;63.88;97800.16;4988346;28;20054;-69
2022/08/03 04:50:10;;;;;;;30.58;18.90;;;;;;;34.10;66.12;97808.78;4988521;28;20109;-68
2022/08/03 04:53:10;;;;;;;24.73;18.58;;;;;;;33.78;65.34;97802.31;4988143;28;20150;-69
2022/08/03 04:55:59;;;;;;;26.63;20.33;;;;;;;33.65;66.65;97810.19;4988494;28;20112;-69
2022/08/03 04:58:48;;;;;;;25.98;19.10;;;;;;;33.58;69.66;97827.63;4987629;28;20160;-68
2022/08/03 05:01:30;;;;;;;29.80;20.08;;;;;;;33.49;70.31;97824.41;4987896;28;20042;-69
2022/08/03 05:04:19;;;;;;;36.78;21.60;;;;;;;33.22;71.00;97810.72;4983526;28;20165;-69
2022/08/03 05:07:01;;;;;;;33.70;22.35;;;;;;;33.13;70.78;97799.97;4988322;28;20046;-67
2022/08/03 05:09:59;;;;;;;35.35;26.23;;;;;;;33.40;71.26;97812.81;4987935;28;20046;-71
2022/08/03 05:12:37;;;;;;;37.20;24.83;;;;;;;33.39;71.61;97819.56;4968190;28;20043;-72
2022/08/03 05:15:32;;;;;;;43.80;26.63;;;;;;;33.44;72.49;97817.22;4969292;28;20051;-71
2022/08/03 05:18:15;;;;;;;41.15;25.05;;;;;;;33.48;70.84;97808.91;4970222;28;20541;-70
2022/08/03 05:21:04;;;;;;;37.00;24.63;;;;;;;33.62;71.50;97803.41;4968328;28;20506;-70
2022/08/03 05:23:53;;;;;;;40.13;26.35;;;;;;;33.68;72.72;97804.66;4967992;28;20153;-73
2022/08/03 05:26:35;;;;;;;37.92;25.85;;;;;;;33.74;70.31;97803.09;4969584;28;20054;-71
2022/08/03 05:29:24;;;;;;;36.20;24.45;;;;;;;33.96;71.02;97808.75;4970647;28;20061;-71
2022/08/03 05:32:06;;;;;;;33.15;25.25;;;;;;;33.88;73.52;97812.66;4968242;28;20038;-75
2022/08/03 05:35:01;;;;;;;27.55;19.63;;;;;;;33.51;61.46;97816.47;4976899;28;20125;-67
2022/08/03 05:38:08;;;;;;;;;;;;;;;33.66;62.83;97822.94;4968048;28;20039;-69
2022/08/03 05:41:11;;;;;;;25.52;19.25;;;;;;;33.66;63.53;97815.38;4967811;28;20424;-68
2022/08/03 05:44:24;;;;;;;30.02;20.65;;;;;;;34.03;66.58;97806.00;4980371;28;20110;-69
2022/08/03 05:46:59;;;;;;;23.85;20.65;;;;;;;34.72;66.61;97804.19;4967598;28;20054;-68
2022/08/03 05:49:54;;;;;;;28.05;21.92;;;;;;;34.79;65.68;97814.53;4967215;28;20070;-69
2022/08/03 05:52:29;;;;;;;27.98;21.02;;;;;;;34.33;66.80;97816.03;4950547;28;20110;-67
2022/08/03 05:55:18;;;;;;;29.15;20.92;;;;;;;34.66;68.08;97806.53;4967586;28;20117;-70
2022/08/03 05:58:08;;;;;;;31.42;23.27;;;;;;;35.04;66.37;97808.94;4952421;28;20053;-69
2022/08/03 06:00:51;;;;;;;29.23;21.13;;;;;;;34.68;61.70;97800.59;4985901;28;20116;-69
2022/08/03 06:03:40;;;;;;;28.55;20.67;;;;;;;35.76;64.80;97787.31;4976575;28;20054;-69
2022/08/03 06:06:22;;;;;;;30.88;22.38;;;;;;;35.86;61.15;97780.06;4986752;28;20474;-69
2022/08/03 06:09:12;;;;;;;34.72;22.20;;;;;;;36.09;58.81;97781.56;4975519;28;20129;-69
2022/08/03 06:11:54;;;;;;;31.88;22.95;;;;;;;36.59;58.41;97782.06;4962149;28;20134;-68
2022/08/03 06:14:43;;;;;;;33.22;21.90;;;;;;;36.68;61.35;97778.81;4986060;28;20116;-69
2022/08/03 06:17:25;;;;;;;30.38;20.77;;;;;;;36.97;58.09;97784.16;4984689;28;20133;-70
2022/08/03 06:20:17;;;;;;;24.58;18.77;;;;;;;36.66;56.68;97795.19;4974538;28;20128;-69
2022/08/03 06:22:59;;;;;;;29.17;19.63;;;;;;;36.98;54.33;97786.53;4979052;28;20125;-70
2022/08/03 06:25:56;;;;;;;26.00;19.58;;;;;;;36.76;55.89;97790.72;4968117;28;20047;-70
2022/08/03 06:28:38;;;;;;;29.65;18.95;;;;;;;36.88;55.27;97786.63;4993650;28;20129;-70
2022/08/03 06:31:34;;;;;;;30.02;17.27;;;;;;;36.95;54.13;97781.75;5006026;28;20046;-69
2022/08/03 06:34:16;;;;;;;28.90;17.98;;;;;;;36.17;57.48;97778.34;5004728;28;20153;-70
2022/08/03 06:37:15;;;;;;;21.13;16.73;;;;;;;36.90;55.58;97773.03;5006445;28;20131;-71
2022/08/03 06:39:57;;;;;;;25.15;16.00;;;;;;;37.34;58.26;97761.03;5006922;28;20135;-74
2022/08/03 06:42:47;;;;;;;28.08;17.55;;;;;;;36.27;55.42;97751.56;5006753;28;20108;-70
2022/08/03 06:45:30;;;;;;;26.67;14.95;;;;;;;36.75;57.24;97758.41;4999094;28;20042;-75
2022/08/03 06:48:19;;;;;;;23.15;15.95;;;;;;;37.22;58.08;97759.56;4986900;28;20056;-72
2022/08/03 06:51:01;;;;;;;21.48;16.00;;;;;;;37.05;56.67;97774.47;4988290;28;20104;-71
2022/08/03 06:53:50;;;;;;;24.95;16.83;;;;;;;36.62;59.21;97767.25;4987862;28;20162;-73
2022/08/03 06:56:32;;;;;;;21.60;15.60;;;;;;;36.42;58.69;97758.63;4976367;28;20049;-69
2022/08/03 06:59:21;;;;;;;29.40;15.93;;;;;;;36.36;60.91;97763.03;4984790;28;20082;-70
2022/08/03 07:02:23;;;;;;;26.38;17.20;;;;;;;36.28;59.49;97753.13;4980540;28;20078;-73
2022/08/03 07:05:14;;;;;;;25.73;15.70;;;;;;;36.40;59.81;97752.66;4956784;28;20086;-72
2022/08/03 07:07:58;;;;;;;23.92;15.82;;;;;;;36.19;60.84;97747.19;4935255;28;20046;-72
2022/08/03 07:10:47;;;;;;;30.35;15.98;;;;;;;36.04;61.15;97738.91;4973774;28;20073;-71
2022/08/03 07:13:29;;;;;;;28.40;16.25;;;;;;;36.15;62.42;97740.81;4973170;28;20057;-72
2022/08/03 07:16:18;;;;;;;29.10;17.55;;;;;;;36.23;62.01;97736.78;4982316;28;20056;-71
2022/08/03 07:19:01;;;;;;;27.85;17.48;;;;;;;36.36;62.47;97749.06;4983060;28;20101;-70
2022/08/03 07:21:50;;;;;;;28.17;18.98;;;;;;;36.41;61.82;97751.44;4993483;28;20384;-69
2022/08/03 07:24:33;;;;;;;;;;;;;;;36.31;60.28;97749.53;4970541;28;20050;-74
2022/08/03 07:27:22;;;;;;;28.40;17.35;;;;;;;36.37;56.51;97745.09;4956907;28;20044;-74
2022/08/03 07:30:08;;;;;;;30.30;17.92;;;;;;;36.70;54.87;97736.47;4990282;28;20062;-72
2022/08/03 07:32:57;;;;;;;26.95;18.30;;;;;;;36.63;59.78;97726.91;4988988;28;20146;-71
2022/08/03 07:35:54;;;;;;;26.15;17.58;;;;;;;36.72;58.02;97720.88;4996100;28;20046;-73
2022/08/03 07:38:36;;;;;;;31.33;17.92;;;;;;;36.66;55.12;97724.53;4986672;28;20058;-70
2022/08/03 07:41:25;;;;;;;29.15;18.92;;;;;;;37.11;55.17;97728.09;4987077;28;20137;-70
2022/08/03 07:44:14;;;;;;;26.55;18.38;;;;;;;37.35;56.40;97719.84;4980559;28;20084;-73
2022/08/03 07:46:56;;;;;;;44.08;21.02;;;;;;;37.51;54.03;97711.66;4986084;28;20053;-73
2022/08/03 07:49:50;;;;;;;29.30;20.17;;;;;;;37.02;54.78;97719.38;4966593;28;20046;-73
2022/08/03 07:52:48;;;;;;;30.25;19.65;;;;;;;37.01;53.58;97715.00;4967280;28;20600;-73
2022/08/03 07:55:37;;;;;;;29.00;19.00;;;;;;;37.73;56.44;97705.81;4932957;28;20046;-73
2022/08/03 07:58:22;;;;;;;27.00;20.17;;;;;;;37.93;53.78;97698.31;4970838;28;20050;-74
2022/08/03 08:01:18;;;;;;;34.83;22.45;;;;;;;37.94;55.20;97693.50;4967816;28;20050;-74
2022/08/03 08:04:07;;;;;;;32.67;20.27;;;;;;;37.75;56.31;97692.19;4955453;28;20148;-72
2022/08/03 08:06:56;;;;;;;32.22;22.77;;;;;;;37.92;56.12;97688.31;4945874;28;20046;-73
2022/08/03 08:09:45;;;;;;;32.78;23.85;;;;;;;37.20;57.46;97694.84;4977618;28;20047;-72
2022/08/03 08:12:27;;;;;;;31.85;24.38;;;;;;;37.06;56.94;97694.97;4958447;28;20046;-72
2022/08/03 08:15:23;;;;;;;34.75;24.33;;;;;;;37.71;55.21;97683.81;4970476;28;20074;-74
2022/08/03 08:18:01;;;;;;;36.30;23.52;;;;;;;37.90;54.44;97684.38;4979262;28;20038;-73
2022/08/03 08:20:54;;;;;;;31.30;23.10;;;;;;;37.89;54.72;97677.16;4959743;28;20066;-73
2022/08/03 08:24:04;;;;;;;31.20;22.65;;;;;;;37.80;52.96;97675.69;4981016;28;20085;-73
2022/08/03 08:27:00;;;;;;;32.08;20.20;;;;;;;37.97;51.29;97659.84;4988443;28;20128;-74
2022/08/03 08:29:49;;;;;;;27.95;22.35;;;;;;;37.79;52.54;97639.72;4970545;28;20478;-71
2022/08/03 08:32:29;;;;;;;31.48;20.55;;;;;;;37.86;51.89;97644.44;4979577;28;20153;-73
2022/08/03 08:35:25;;;;;;;33.78;24.05;;;;;;;37.42;53.38;97638.63;4987647;28;20057;-72
2022/08/03 08:38:14;;;;;;;27.27;20.52;;;;;;;37.92;52.56;97651.91;4968744;28;20078;-70
2022/08/03 08:40:56;;;;;;;29.58;21.55;;;;;;;37.91;53.24;97649.53;4966334;28;20047;-72
2022/08/03 08:43:45;;;;;;;29.08;20.95;;;;;;;37.88;54.20;97648.38;4954120;28;20141;-73
2022/08/03 08:46:27;;;;;;;27.63;19.90;;;;;;;36.81;53.87;97670.84;4970481;28;20043;-72
2022/08/03 08:49:26;;;;;;;25.65;17.55;;;;;;;35.50;52.13;97674.16;4974729;28;20512;-72
2022/08/03 08:52:11;;;;;;;22.08;16.20;;;;;;;35.84;52.29;97670.81;4970533;28;20054;-72
2022/08/03 08:55:15;;;;;;;20.88;12.23;;;;;;;35.46;49.39;97656.63;4987710;28;20046;-72
2022/08/03 08:58:15;;;;;;;17.38;13.13;;;;;;;35.87;52.09;97658.84;4978971;28;20133;-74
2022/08/03 09:01:01;;;;;;;15.27;12.85;;;;;;;35.58;49.49;97635.84;4969571;28;20066;-71
2022/08/03 09:03:52;;;;;;;17.83;13.25;;;;;;;35.76;52.33;97633.00;4979561;28;20145;-71
2022/08/03 09:06:34;;;;;;;24.10;15.63;;;;;;;35.65;50.79;97622.63;4988446;28;20129;-73
2022/08/03 09:09:44;;;;;;;23.83;15.77;;;;;;;35.82;53.20;97620.19;4971381;28;20043;-72
2022/08/03 09:12:46;;;;;;;30.40;17.42;;;;;;;35.30;51.86;97615.28;4967832;28;20133;-70
2022/08/03 09:15:43;;;;;;;31.52;18.33;;;;;;;35.56;54.88;97627.09;4984596;28;20057;-73
2022/08/03 09:18:34;;;;;;;26.65;19.88;;;;;;;35.10;54.01;97623.28;4988034;28;20042;-74
2022/08/03 09:21:32;;;;;;;31.58;19.73;;;;;;;35.39;57.15;97645.50;4968057;28;20047;-73
2022/08/03 09:24:09;;;;;;;28.23;22.40;;;;;;;35.23;56.74;97660.72;4967641;28;20517;-75
2022/08/03 09:27:25;;;;;;;30.80;23.88;;;;;;;35.03;56.13;97673.53;4983007;28;20244;-76
2022/08/03 09:30:01;;;;;;;31.40;23.67;;;;;;;35.07;57.21;97668.72;4981161;28;20035;-73
2022/08/03 09:33:17;;;;;;;32.23;23.33;;;;;;;35.03;58.23;97659.59;4972625;28;20066;-74
2022/08/03 09:36:43;;;;;;;32.28;24.90;;;;;;;34.88;58.88;97647.69;4973227;28;20310;-73
2022/08/03 09:39:38;;;;;;;30.88;24.85;;;;;;;34.91;59.52;97644.06;4966186;28;20105;-74
2022/08/03 09:42:27;;;;;;;33.70;25.70;;;;;;;34.85;58.33;97643.72;4967139;28;20497;-74
2022/08/03 09:45:03;;;;;;;41.17;27.15;;;;;;;34.97;58.24;97641.66;4966670;28;20058;-74
2022/08/03 09:47:58;;;;;;;31.30;25.70;;;;;;;34.86;60.02;97642.50;4967851;28;20406;-73
2022/08/03 09:50:48;;;;;;;35.47;26.77;;;;;;;34.74;59.22;97645.72;4972136;28;20038;-70
2022/08/03 09:53:58;;;;;;;33.67;26.35;;;;;;;34.47;58.97;97637.78;4966415;28;20046;-72
2022/08/03 09:56:51;;;;;;;31.67;22.95;;;;;;;34.33;54.80;97621.84;4973094;28;20052;-73
2022/08/03 09:59:40;;;;;;;34.42;22.70;;;;;;;34.42;58.49;97596.41;4986911;28;20054;-70
2022/08/03 10:02:32;;;;;;;28.88;21.00;;;;;;;34.31;56.56;97585.25;4636465;28;10000278;-70
2022/08/03 10:05:43;;;;;;;34.03;20.38;;;;;;;34.40;57.97;97584.84;4965287;28;20043;-69
2022/08/03 10:08:19;;;;;;;23.63;17.48;;;;;;;34.31;56.60;97573.31;4965853;28;20082;-70
2022/08/03 10:11:16;;;;;;;25.58;18.25;;;;;;;34.46;56.07;97563.75;4975139;28;20113;-69
2022/08/03 10:13:51;;;;;;;26.70;18.48;;;;;;;34.32;57.92;97563.78;4964536;28;20204;-72
2022/08/03 10:16:41;;;;;;;32.30;16.42;;;;;;;34.24;57.69;97587.25;4972411;28;20597;-71
2022/08/03 10:19:30;;;;;;;20.50;12.80;;;;;;;33.88;56.97;97601.97;4981444;28;20137;-69
2022/08/03 10:22:22;;;;;;;22.98;10.82;;;;;;;33.94;58.39;97602.38;4976364;28;20110;-69
2022/08/03 10:25:17;;;;;;;20.00;9.63;;;;;;;34.02;57.59;97595.59;4982415;28;20108;-70
2022/08/03 10:28:17;;;;;;;23.25;10.48;;;;;;;33.89;58.66;97594.41;4972664;28;20051;-71
2022/08/03 10:31:01;;;;;;;17.75;9.50;;;;;;;33.85;57.93;97599.19;4971178;28;20167;-70
2022/08/03 10:33:51;;;;;;;12.65;8.35;;;;;;;34.07;58.26;97609.13;4944239;28;20114;-72
2022/08/03 10:36:37;;;;;;;19.45;8.10;;;;;;;33.93;57.86;97614.69;4975615;28;20085;-72
2022/08/03 10:39:29;;;;;;;15.05;7.88;;;;;;;34.02;58.02;97614.28;4991309;28;20049;-70
2022/08/03 10:42:12;;;;;;;20.17;8.15;;;;;;;34.17;58.98;97617.91;4977707;28;20058;-72
2022/08/03 10:45:25;;;;;;;20.05;8.40;;;;;;;33.92;57.60;97599.19;4998743;28;20054;-72
2022/08/03 10:48:01;;;;;;;17.17;7.82;;;;;;;34.04;58.83;97596.00;4988787;28;20046;-70
2022/08/03 10:50:51;;;;;;;16.70;8.77;;;;;;;34.20;57.88;97589.25;4992799;28;20082;-71
2022/08/03 10:53:46;;;;;;;18.48;8.40;;;;;;;34.20;58.20;97594.81;4977648;28;20057;-74
2022/08/03 11:00:05;;;;;;;19.85;8.40;;;;;;;34.26;56.98;97593.22;4993760;28;20160;-73
2022/08/03 11:03:08;;;;;;;17.52;9.23;;;;;;;34.20;55.36;97592.03;4993359;28;20042;-74
2022/08/03 11:05:57;;;;;;;20.48;8.80;;;;;;;34.30;56.40;97594.03;4995236;28;20078;-74
2022/08/03 11:08:54;;;;;;;17.27;9.65;;;;;;;34.27;56.84;97586.47;4985541;28;20135;-72
2022/08/03 11:11:30;;;;;;;17.63;9.70;;;;;;;34.28;56.38;97586.06;4994250;28;20115;-72
2022/08/03 11:14:21;;;;;;;14.98;9.23;;;;;;;34.37;57.83;97588.44;4991197;28;20046;-75
2022/08/03 11:17:14;;;;;;;20.98;9.32;;;;;;;34.15;56.76;97576.50;4992558;28;20073;-74
2022/08/03 11:19:57;;;;;;;23.25;9.85;;;;;;;33.86;54.81;97581.25;4987827;28;20054;-75
2022/08/03 11:22:58;;;;;;;21.85;8.52;;;;;;;33.66;52.38;97570.53;4990952;28;20153;-72
2022/08/03 11:26:31;;;;;;;15.80;8.05;;;;;;;34.09;51.24;97578.13;4995604;28;20073;-71
2022/08/03 11:29:34;;;;;;;17.13;8.05;;;;;;;34.09;51.05;97573.34;4957616;28;20061;-72
2022/08/03 11:32:46;;;;;;;21.10;7.57;;;;;;;33.60;50.99;97566.53;4992994;28;20082;-72
2022/08/03 11:35:44;;;;;;;15.88;6.72;;;;;;;33.54;52.33;97568.09;4990296;28;20054;-72
2022/08/03 11:38:39;;;;;;;19.17;7.57;;;;;;;33.63;52.32;97562.16;4984912;28;20050;-74
2022/08/03 11:41:37;;;;;;;20.20;7.22;;;;;;;33.99;51.28;97556.63;4975442;28;20069;-71
2022/08/03 11:44:47;;;;;;;20.27;7.63;;;;;;;34.17;52.23;97551.09;4978835;28;20429;-71
2022/08/03 11:47:38;;;;;;;14.73;6.50;;;;;;;34.22;52.40;97539.53;4965659;28;20050;-71
2022/08/03 11:50:31;;;;;;;12.80;7.28;;;;;;;34.26;52.39;97532.78;4967362;28;20050;-73
2022/08/03 11:53:20;;;;;;;17.42;8.00;;;;;;;34.24;52.96;97515.66;4976066;28;20070;-72
2022/08/03 11:56:05;;;;;;;15.00;7.75;;;;;;;34.12;53.50;97514.03;4978578;28;20475;-72
2022/08/03 11:58:58;;;;;;;21.10;8.38;;;;;;;34.32;54.30;97513.66;4968570;28;20074;-72
2022/08/03 12:02:20;;;;;;;17.13;8.00;;;;;;;34.55;54.47;97515.16;4982293;28;20104;-70
2022/08/03 12:05:09;;;;;;;17.30;7.80;;;;;;;33.94;54.35;97511.28;4983494;28;20047;-71
2022/08/03 12:07:58;;;;;;;19.45;8.15;;;;;;;33.96;55.17;97508.13;4973555;28;20070;-72
2022/08/03 12:10:50;;;;;;;18.77;8.10;;;;;;;33.84;54.90;97512.13;4979483;28;20043;-74
2022/08/03 12:13:51;;;;;;;28.42;8.73;;;;;;;33.99;55.92;97518.44;4972266;28;20105;-75
2022/08/03 12:16:53;;;;;;;27.45;9.85;;;;;;;33.96;56.24;97508.13;4967953;28;20525;-71
2022/08/03 12:19:48;;;;;;;20.23;9.63;;;;;;;33.73;55.47;97502.97;4969539;28;20051;-73
2022/08/03 12:22:34;;;;;;;19.42;9.85;;;;;;;33.86;57.49;97503.34;4982170;28;20054;-73
2022/08/03 12:25:31;;;;;;;22.08;10.55;;;;;;;33.78;57.58;97496.19;4968098;28;20514;-72
2022/08/03 12:28:23;;;;;;;19.60;9.50;;;;;;;33.85;58.55;97496.19;4967599;28;20074;-73
2022/08/03 12:31:18;;;;;;;18.88;9.38;;;;;;;33.96;57.24;97497.00;4958166;28;20054;-72
2022/08/03 12:34:07;;;;;;;19.08;9.38;;;;;;;33.96;57.63;97490.63;4594402;28;9999863;-73
2022/08/03 12:37:03;;;;;;;17.08;10.60;;;;;;;33.84;58.21;97500.97;4984345;28;20139;-74
2022/08/03 12:40:05;;;;;;;;;;;;;;;33.86;57.49;97486.66;4976391;28;21040;-73
2022/08/03 12:43:02;;;;;;;20.70;10.60;;;;;;;33.53;58.11;97485.84;4977837;28;19946;-72
2022/08/03 12:45:51;;;;;;;24.33;10.95;;;;;;;33.39;57.64;97488.63;4963939;28;20073;-72
2022/08/03 12:48:33;;;;;;;22.17;11.43;;;;;;;33.45;56.91;97485.03;4978458;28;20047;-75
2022/08/03 12:51:22;;;;;;;21.63;12.48;;;;;;;33.79;57.26;97481.09;4974141;28;20042;-73
2022/08/03 12:54:05;;;;;;;22.73;11.93;;;;;;;33.77;58.30;97489.06;4986025;28;20057;-73
2022/08/03 12:57:09;;;;;;;25.27;13.15;;;;;;;33.59;58.82;97473.13;4976699;28;20071;-72
2022/08/03 13:00:11;;;;;;;29.17;14.75;;;;;;;33.51;59.40;97460.41;4969560;28;20050;-75
2022/08/03 13:03:13;;;;;;;22.63;13.93;;;;;;;33.66;58.47;97464.00;4972543;28;20129;-74
2022/08/03 13:06:17;;;;;;;31.52;14.55;;;;;;;33.32;59.21;97479.06;4973849;28;20799;-74
2022/08/03 13:09:13;;;;;;;21.88;17.10;;;;;;;33.24;59.73;97474.69;4984670;28;20464;-73
2022/08/03 13:12:06;;;;;;;26.45;17.17;;;;;;;33.38;60.42;97473.13;4975471;28;20070;-73
2022/08/03 13:14:58;;;;;;;28.35;17.42;;;;;;;33.30;60.04;97461.97;4941602;28;20046;-73
2022/08/03 13:17:40;;;;;;;28.75;17.42;;;;;;;33.40;60.33;97465.16;4979464;28;20646;-73
2022/08/03 13:20:30;;;;;;;29.80;17.98;;;;;;;33.39;60.50;97474.72;4971680;28;20070;-72